sensor_id;sensor_type;location;lat;lon;timestamp;P1;durP1;ratioP1;P2;durP2;ratioP2
7497;SDS011;3790;48.806;9.140;2023-06-22T00:01:23;6.80;;;4.55;;
7497;SDS011;3790;48.806;9.140;2023-06-22T00:06:24;6.15;;;4.18;;
7497;SDS011;3790;48.806;9.140;2023-06-22T00:11:24;7.03;;;4.63;;
7497;SDS011;3790;48.806;9.140;2023-06-22T00:16:25;6.65;;;4.57;;
7497;SDS011;3790;48.806;9.140;2023-06-22T00:21:28;9.30;;;4.40;;
7497;SDS011;3790;48.806;9.140;2023-06-22T00:26:29;8.65;;;5.07;;
7497;SDS011;3790;48.806;9.140;2023-06-22T00:31:30;5.93;;;4.60;;
7497;SDS011;3790;48.806;9.140;2023-06-22T00:36:30;6.32;;;4.88;;
7497;SDS011;3790;48.806;9.140;2023-06-22T00:41:31;9.25;;;4.72;;
7497;SDS011;3790;48.806;9.140;2023-06-22T00:46:31;6.05;;;4.57;;
7497;SDS011;3790;48.806;9.140;2023-06-22T00:51:32;7.60;;;4.43;;
7497;SDS011;3790;48.806;9.140;2023-06-22T00:56:33;5.93;;;4.35;;
7497;SDS011;3790;48.806;9.140;2023-06-22T01:01:33;6.50;;;4.55;;
7497;SDS011;3790;48.806;9.140;2023-06-22T01:06:35;5.65;;;4.22;;
7497;SDS011;3790;48.806;9.140;2023-06-22T01:11:41;9.57;;;5.07;;
7497;SDS011;3790;48.806;9.140;2023-06-22T01:16:47;5.47;;;3.95;;
7497;SDS011;3790;48.806;9.140;2023-06-22T01:21:49;6.60;;;4.63;;
7497;SDS011;3790;48.806;9.140;2023-06-22T01:27:05;5.97;;;4.47;;
7497;SDS011;3790;48.806;9.140;2023-06-22T01:32:24;6.72;;;4.50;;
7497;SDS011;3790;48.806;9.140;2023-06-22T01:37:24;8.13;;;4.38;;
7497;SDS011;3790;48.806;9.140;2023-06-22T01:42:26;5.85;;;4.45;;
7497;SDS011;3790;48.806;9.140;2023-06-22T01:47:28;5.85;;;4.68;;
7497;SDS011;3790;48.806;9.140;2023-06-22T01:52:28;7.55;;;5.30;;
7497;SDS011;3790;48.806;9.140;2023-06-22T01:57:29;7.70;;;5.35;;
7497;SDS011;3790;48.806;9.140;2023-06-22T02:02:32;7.65;;;4.55;;
7497;SDS011;3790;48.806;9.140;2023-06-22T02:07:52;7.45;;;4.88;;
7497;SDS011;3790;48.806;9.140;2023-06-22T02:12:55;10.73;;;5.20;;
7497;SDS011;3790;48.806;9.140;2023-06-22T02:17:57;7.15;;;5.60;;
7497;SDS011;3790;48.806;9.140;2023-06-22T02:22:58;6.53;;;4.82;;
7497;SDS011;3790;48.806;9.140;2023-06-22T02:27:59;7.93;;;5.38;;
7497;SDS011;3790;48.806;9.140;2023-06-22T02:32:59;6.97;;;4.25;;
7497;SDS011;3790;48.806;9.140;2023-06-22T02:38:01;6.38;;;4.55;;
7497;SDS011;3790;48.806;9.140;2023-06-22T02:43:02;7.45;;;4.78;;
7497;SDS011;3790;48.806;9.140;2023-06-22T02:48:03;5.38;;;3.90;;
7497;SDS011;3790;48.806;9.140;2023-06-22T02:53:04;6.03;;;4.80;;
7497;SDS011;3790;48.806;9.140;2023-06-22T02:58:04;7.90;;;5.07;;
7497;SDS011;3790;48.806;9.140;2023-06-22T03:03:05;7.63;;;5.55;;
7497;SDS011;3790;48.806;9.140;2023-06-22T03:08:05;7.32;;;5.15;;
7497;SDS011;3790;48.806;9.140;2023-06-22T03:13:06;6.80;;;4.68;;
7497;SDS011;3790;48.806;9.140;2023-06-22T03:18:09;6.47;;;5.07;;
7497;SDS011;3790;48.806;9.140;2023-06-22T03:23:09;6.35;;;4.85;;
7497;SDS011;3790;48.806;9.140;2023-06-22T03:28:10;7.72;;;5.53;;
7497;SDS011;3790;48.806;9.140;2023-06-22T03:33:10;9.48;;;5.68;;
7497;SDS011;3790;48.806;9.140;2023-06-22T03:38:11;8.63;;;5.18;;
7497;SDS011;3790;48.806;9.140;2023-06-22T03:43:11;11.38;;;5.32;;
7497;SDS011;3790;48.806;9.140;2023-06-22T03:48:12;8.30;;;5.05;;
7497;SDS011;3790;48.806;9.140;2023-06-22T03:53:12;7.70;;;4.65;;
7497;SDS011;3790;48.806;9.140;2023-06-22T03:58:13;6.82;;;4.30;;
7497;SDS011;3790;48.806;9.140;2023-06-22T04:03:14;5.82;;;4.00;;
7497;SDS011;3790;48.806;9.140;2023-06-22T04:08:15;6.97;;;4.25;;
7497;SDS011;3790;48.806;9.140;2023-06-22T04:13:16;6.50;;;4.03;;
7497;SDS011;3790;48.806;9.140;2023-06-22T04:18:16;5.30;;;3.47;;
7497;SDS011;3790;48.806;9.140;2023-06-22T04:23:17;8.15;;;3.92;;
7497;SDS011;3790;48.806;9.140;2023-06-22T04:28:17;6.43;;;4.32;;
7497;SDS011;3790;48.806;9.140;2023-06-22T04:33:18;5.15;;;3.88;;
7497;SDS011;3790;48.806;9.140;2023-06-22T04:38:18;6.65;;;4.32;;
7497;SDS011;3790;48.806;9.140;2023-06-22T04:43:21;5.55;;;3.78;;
7497;SDS011;3790;48.806;9.140;2023-06-22T04:48:22;6.97;;;4.60;;
7497;SDS011;3790;48.806;9.140;2023-06-22T04:53:22;6.22;;;4.57;;
7497;SDS011;3790;48.806;9.140;2023-06-22T04:58:23;7.63;;;4.43;;
7497;SDS011;3790;48.806;9.140;2023-06-22T05:03:26;5.97;;;4.63;;
7497;SDS011;3790;48.806;9.140;2023-06-22T05:08:27;8.18;;;4.50;;
7497;SDS011;3790;48.806;9.140;2023-06-22T05:13:28;5.97;;;4.18;;
7497;SDS011;3790;48.806;9.140;2023-06-22T05:18:29;5.38;;;4.30;;
7497;SDS011;3790;48.806;9.140;2023-06-22T05:23:32;5.40;;;4.20;;
7497;SDS011;3790;48.806;9.140;2023-06-22T05:28:33;6.95;;;4.45;;
7497;SDS011;3790;48.806;9.140;2023-06-22T05:33:33;8.20;;;4.20;;
7497;SDS011;3790;48.806;9.140;2023-06-22T05:38:34;8.40;;;4.22;;
7497;SDS011;3790;48.806;9.140;2023-06-22T05:43:34;5.32;;;3.92;;
7497;SDS011;3790;48.806;9.140;2023-06-22T05:48:37;5.85;;;4.28;;
7497;SDS011;3790;48.806;9.140;2023-06-22T05:53:38;9.63;;;4.50;;
7497;SDS011;3790;48.806;9.140;2023-06-22T05:58:38;10.73;;;4.68;;
7497;SDS011;3790;48.806;9.140;2023-06-22T06:03:39;6.68;;;4.20;;
7497;SDS011;3790;48.806;9.140;2023-06-22T06:08:41;6.78;;;4.20;;
7497;SDS011;3790;48.806;9.140;2023-06-22T06:13:41;5.93;;;3.95;;
7497;SDS011;3790;48.806;9.140;2023-06-22T06:18:42;8.18;;;4.22;;
7497;SDS011;3790;48.806;9.140;2023-06-22T06:23:43;7.15;;;4.50;;
7497;SDS011;3790;48.806;9.140;2023-06-22T06:28:43;7.32;;;4.65;;
7497;SDS011;3790;48.806;9.140;2023-06-22T06:33:44;6.38;;;3.85;;
7497;SDS011;3790;48.806;9.140;2023-06-22T06:38:44;7.47;;;4.85;;
7497;SDS011;3790;48.806;9.140;2023-06-22T06:43:47;7.43;;;4.78;;
7497;SDS011;3790;48.806;9.140;2023-06-22T06:48:47;8.77;;;4.47;;
7497;SDS011;3790;48.806;9.140;2023-06-22T06:53:48;9.40;;;4.55;;
7497;SDS011;3790;48.806;9.140;2023-06-22T06:58:49;12.43;;;3.70;;
7497;SDS011;3790;48.806;9.140;2023-06-22T07:03:51;5.03;;;3.60;;
7497;SDS011;3790;48.806;9.140;2023-06-22T07:08:51;5.57;;;3.55;;
7497;SDS011;3790;48.806;9.140;2023-06-22T07:13:52;7.25;;;4.07;;
7497;SDS011;3790;48.806;9.140;2023-06-22T07:18:52;6.25;;;3.95;;
7497;SDS011;3790;48.806;9.140;2023-06-22T07:23:53;5.72;;;3.85;;
7497;SDS011;3790;48.806;9.140;2023-06-22T07:28:54;6.25;;;3.45;;
7497;SDS011;3790;48.806;9.140;2023-06-22T07:33:54;9.93;;;3.88;;
7497;SDS011;3790;48.806;9.140;2023-06-22T07:38:55;8.10;;;3.60;;
7497;SDS011;3790;48.806;9.140;2023-06-22T07:43:56;5.15;;;3.20;;
7497;SDS011;3790;48.806;9.140;2023-06-22T07:48:56;10.27;;;3.67;;
7497;SDS011;3790;48.806;9.140;2023-06-22T07:53:57;8.73;;;3.20;;
7497;SDS011;3790;48.806;9.140;2023-06-22T07:58:57;6.05;;;3.30;;
7497;SDS011;3790;48.806;9.140;2023-06-22T08:03:59;7.57;;;3.58;;
7497;SDS011;3790;48.806;9.140;2023-06-22T08:08:59;8.27;;;3.58;;
7497;SDS011;3790;48.806;9.140;2023-06-22T08:14:00;7.55;;;3.53;;
7497;SDS011;3790;48.806;9.140;2023-06-22T08:19:00;6.25;;;3.88;;
7497;SDS011;3790;48.806;9.140;2023-06-22T08:24:01;5.88;;;3.75;;
7497;SDS011;3790;48.806;9.140;2023-06-22T08:29:02;7.15;;;3.08;;
7497;SDS011;3790;48.806;9.140;2023-06-22T08:34:03;10.95;;;4.30;;
7497;SDS011;3790;48.806;9.140;2023-06-22T08:39:04;5.90;;;3.40;;
7497;SDS011;3790;48.806;9.140;2023-06-22T08:44:04;7.45;;;3.70;;
7497;SDS011;3790;48.806;9.140;2023-06-22T08:49:05;5.35;;;2.92;;
7497;SDS011;3790;48.806;9.140;2023-06-22T08:54:06;4.40;;;2.85;;
7497;SDS011;3790;48.806;9.140;2023-06-22T08:59:06;6.15;;;3.20;;
7497;SDS011;3790;48.806;9.140;2023-06-22T09:04:07;10.63;;;3.55;;
7497;SDS011;3790;48.806;9.140;2023-06-22T09:09:09;4.88;;;3.03;;
7497;SDS011;3790;48.806;9.140;2023-06-22T09:14:10;4.95;;;3.17;;
7497;SDS011;3790;48.806;9.140;2023-06-22T09:19:11;5.70;;;4.00;;
7497;SDS011;3790;48.806;9.140;2023-06-22T09:24:12;7.70;;;3.55;;
7497;SDS011;3790;48.806;9.140;2023-06-22T09:29:12;6.30;;;3.42;;
7497;SDS011;3790;48.806;9.140;2023-06-22T09:34:13;7.47;;;4.15;;
7497;SDS011;3790;48.806;9.140;2023-06-22T09:39:13;7.82;;;3.53;;
7497;SDS011;3790;48.806;9.140;2023-06-22T09:44:14;6.43;;;3.75;;
7497;SDS011;3790;48.806;9.140;2023-06-22T09:49:14;5.97;;;3.55;;
7497;SDS011;3790;48.806;9.140;2023-06-22T09:54:15;7.00;;;3.40;;
7497;SDS011;3790;48.806;9.140;2023-06-22T09:59:15;7.88;;;3.70;;
7497;SDS011;3790;48.806;9.140;2023-06-22T10:10:31;8.77;;;3.70;;
7497;SDS011;3790;48.806;9.140;2023-06-22T10:15:32;8.18;;;3.55;;
7497;SDS011;3790;48.806;9.140;2023-06-22T10:20:32;5.82;;;3.40;;
7497;SDS011;3790;48.806;9.140;2023-06-22T10:25:33;9.48;;;4.13;;
7497;SDS011;3790;48.806;9.140;2023-06-22T10:30:33;12.40;;;3.50;;
7497;SDS011;3790;48.806;9.140;2023-06-22T10:35:34;8.25;;;3.95;;
7497;SDS011;3790;48.806;9.140;2023-06-22T10:40:35;8.55;;;4.15;;
7497;SDS011;3790;48.806;9.140;2023-06-22T10:45:35;7.63;;;4.03;;
7497;SDS011;3790;48.806;9.140;2023-06-22T10:50:36;10.73;;;3.97;;
7497;SDS011;3790;48.806;9.140;2023-06-22T10:55:36;8.52;;;4.15;;
7497;SDS011;3790;48.806;9.140;2023-06-22T11:00:47;7.35;;;4.07;;
7497;SDS011;3790;48.806;9.140;2023-06-22T11:05:48;7.18;;;4.03;;
7497;SDS011;3790;48.806;9.140;2023-06-22T11:10:48;7.43;;;4.22;;
7497;SDS011;3790;48.806;9.140;2023-06-22T11:15:51;8.38;;;4.53;;
7497;SDS011;3790;48.806;9.140;2023-06-22T11:20:51;6.88;;;4.22;;
7497;SDS011;3790;48.806;9.140;2023-06-22T11:25:53;11.43;;;4.47;;
7497;SDS011;3790;48.806;9.140;2023-06-22T11:30:54;8.82;;;4.57;;
7497;SDS011;3790;48.806;9.140;2023-06-22T11:35:54;7.35;;;4.18;;
7497;SDS011;3790;48.806;9.140;2023-06-22T11:40:58;10.80;;;4.50;;
7497;SDS011;3790;48.806;9.140;2023-06-22T11:45:58;7.50;;;3.92;;
7497;SDS011;3790;48.806;9.140;2023-06-22T11:51:00;13.23;;;4.53;;
7497;SDS011;3790;48.806;9.140;2023-06-22T11:56:00;7.57;;;3.67;;
7497;SDS011;3790;48.806;9.140;2023-06-22T12:01:01;8.65;;;4.35;;
7497;SDS011;3790;48.806;9.140;2023-06-22T12:06:02;7.95;;;3.92;;
7497;SDS011;3790;48.806;9.140;2023-06-22T12:11:02;8.68;;;5.10;;
7497;SDS011;3790;48.806;9.140;2023-06-22T12:16:05;10.60;;;5.38;;
7497;SDS011;3790;48.806;9.140;2023-06-22T12:21:06;10.48;;;4.78;;
7497;SDS011;3790;48.806;9.140;2023-06-22T12:26:07;8.45;;;4.20;;
7497;SDS011;3790;48.806;9.140;2023-06-22T12:31:07;9.45;;;4.53;;
7497;SDS011;3790;48.806;9.140;2023-06-22T12:36:08;9.60;;;4.18;;
7497;SDS011;3790;48.806;9.140;2023-06-22T12:41:09;9.00;;;3.92;;
7497;SDS011;3790;48.806;9.140;2023-06-22T12:46:10;6.38;;;3.80;;
7497;SDS011;3790;48.806;9.140;2023-06-22T12:51:11;7.03;;;4.15;;
7497;SDS011;3790;48.806;9.140;2023-06-22T12:56:12;8.90;;;3.95;;
7497;SDS011;3790;48.806;9.140;2023-06-22T13:01:13;6.65;;;4.25;;
7497;SDS011;3790;48.806;9.140;2023-06-22T13:06:13;8.63;;;4.20;;
7497;SDS011;3790;48.806;9.140;2023-06-22T13:11:14;11.93;;;4.53;;
7497;SDS011;3790;48.806;9.140;2023-06-22T13:16:14;6.88;;;4.20;;
7497;SDS011;3790;48.806;9.140;2023-06-22T13:21:15;8.75;;;4.15;;
7497;SDS011;3790;48.806;9.140;2023-06-22T13:26:15;11.55;;;4.03;;
7497;SDS011;3790;48.806;9.140;2023-06-22T13:31:16;8.70;;;4.45;;
7497;SDS011;3790;48.806;9.140;2023-06-22T13:36:16;11.40;;;4.10;;
7497;SDS011;3790;48.806;9.140;2023-06-22T13:41:17;11.55;;;4.13;;
7497;SDS011;3790;48.806;9.140;2023-06-22T13:46:18;7.38;;;4.07;;
7497;SDS011;3790;48.806;9.140;2023-06-22T13:51:19;6.32;;;4.20;;
7497;SDS011;3790;48.806;9.140;2023-06-22T13:56:19;8.68;;;4.22;;
7497;SDS011;3790;48.806;9.140;2023-06-22T14:01:20;7.20;;;4.70;;
7497;SDS011;3790;48.806;9.140;2023-06-22T14:06:20;7.10;;;4.50;;
7497;SDS011;3790;48.806;9.140;2023-06-22T14:11:21;7.80;;;4.00;;
7497;SDS011;3790;48.806;9.140;2023-06-22T14:16:21;6.72;;;3.80;;
7497;SDS011;3790;48.806;9.140;2023-06-22T14:21:22;9.43;;;4.50;;
7497;SDS011;3790;48.806;9.140;2023-06-22T14:26:22;8.60;;;4.35;;
7497;SDS011;3790;48.806;9.140;2023-06-22T14:31:23;8.90;;;4.15;;
7497;SDS011;3790;48.806;9.140;2023-06-22T14:36:23;12.82;;;4.15;;
7497;SDS011;3790;48.806;9.140;2023-06-22T14:41:24;9.13;;;4.35;;
7497;SDS011;3790;48.806;9.140;2023-06-22T14:46:24;9.60;;;4.55;;
7497;SDS011;3790;48.806;9.140;2023-06-22T14:51:25;9.57;;;4.03;;
7497;SDS011;3790;48.806;9.140;2023-06-22T14:56:26;9.00;;;3.88;;
7497;SDS011;3790;48.806;9.140;2023-06-22T15:01:29;8.40;;;3.30;;
7497;SDS011;3790;48.806;9.140;2023-06-22T15:06:30;8.60;;;3.17;;
7497;SDS011;3790;48.806;9.140;2023-06-22T15:11:31;8.38;;;3.20;;
7497;SDS011;3790;48.806;9.140;2023-06-22T15:16:33;7.70;;;3.28;;
7497;SDS011;3790;48.806;9.140;2023-06-22T15:21:43;7.63;;;3.20;;
7497;SDS011;3790;48.806;9.140;2023-06-22T15:26:46;10.88;;;3.00;;
7497;SDS011;3790;48.806;9.140;2023-06-22T15:31:46;4.82;;;2.53;;
7497;SDS011;3790;48.806;9.140;2023-06-22T15:36:47;7.25;;;2.63;;
7497;SDS011;3790;48.806;9.140;2023-06-22T15:41:48;8.25;;;2.92;;
7497;SDS011;3790;48.806;9.140;2023-06-22T15:46:48;15.57;;;3.22;;
7497;SDS011;3790;48.806;9.140;2023-06-22T15:51:50;12.48;;;2.92;;
7497;SDS011;3790;48.806;9.140;2023-06-22T15:56:50;7.63;;;3.15;;
7497;SDS011;3790;48.806;9.140;2023-06-22T16:01:51;6.85;;;3.15;;
7497;SDS011;3790;48.806;9.140;2023-06-22T16:06:55;7.50;;;2.90;;
7497;SDS011;3790;48.806;9.140;2023-06-22T16:11:56;6.28;;;2.72;;
7497;SDS011;3790;48.806;9.140;2023-06-22T16:16:56;9.68;;;3.15;;
7497;SDS011;3790;48.806;9.140;2023-06-22T16:21:57;11.80;;;3.03;;
7497;SDS011;3790;48.806;9.140;2023-06-22T16:26:57;9.75;;;2.67;;
7497;SDS011;3790;48.806;9.140;2023-06-22T16:31:58;4.93;;;2.60;;
7497;SDS011;3790;48.806;9.140;2023-06-22T16:36:58;11.98;;;2.90;;
7497;SDS011;3790;48.806;9.140;2023-06-22T16:41:59;6.05;;;2.78;;
7497;SDS011;3790;48.806;9.140;2023-06-22T16:47:02;8.50;;;2.70;;
7497;SDS011;3790;48.806;9.140;2023-06-22T16:52:04;4.88;;;2.65;;
7497;SDS011;3790;48.806;9.140;2023-06-22T16:57:05;9.20;;;3.15;;
7497;SDS011;3790;48.806;9.140;2023-06-22T17:02:06;6.68;;;3.03;;
7497;SDS011;3790;48.806;9.140;2023-06-22T17:07:17;8.25;;;2.72;;
7497;SDS011;3790;48.806;9.140;2023-06-22T17:12:19;10.88;;;3.45;;
7497;SDS011;3790;48.806;9.140;2023-06-22T17:17:22;5.07;;;2.30;;
7497;SDS011;3790;48.806;9.140;2023-06-22T17:22:26;7.43;;;3.03;;
7497;SDS011;3790;48.806;9.140;2023-06-22T17:27:35;8.25;;;3.30;;
7497;SDS011;3790;48.806;9.140;2023-06-22T17:32:36;7.20;;;2.92;;
7497;SDS011;3790;48.806;9.140;2023-06-22T17:37:47;8.25;;;2.85;;
7497;SDS011;3790;48.806;9.140;2023-06-22T17:42:51;7.32;;;2.70;;
7497;SDS011;3790;48.806;9.140;2023-06-22T17:47:55;5.78;;;2.28;;
7497;SDS011;3790;48.806;9.140;2023-06-22T17:52:55;5.53;;;2.58;;
7497;SDS011;3790;48.806;9.140;2023-06-22T17:57:57;7.85;;;3.00;;
7497;SDS011;3790;48.806;9.140;2023-06-22T18:02:58;6.97;;;2.72;;
7497;SDS011;3790;48.806;9.140;2023-06-22T18:08:00;8.43;;;2.78;;
7497;SDS011;3790;48.806;9.140;2023-06-22T18:13:02;5.53;;;2.45;;
7497;SDS011;3790;48.806;9.140;2023-06-22T18:18:05;4.50;;;2.28;;
7497;SDS011;3790;48.806;9.140;2023-06-22T18:23:09;4.85;;;2.58;;
7497;SDS011;3790;48.806;9.140;2023-06-22T18:28:10;7.65;;;2.20;;
7497;SDS011;3790;48.806;9.140;2023-06-22T18:33:12;3.47;;;1.90;;
7497;SDS011;3790;48.806;9.140;2023-06-22T18:38:12;7.30;;;2.10;;
7497;SDS011;3790;48.806;9.140;2023-06-22T18:43:19;4.35;;;1.73;;
7497;SDS011;3790;48.806;9.140;2023-06-22T18:48:23;4.25;;;1.67;;
7497;SDS011;3790;48.806;9.140;2023-06-22T18:53:25;3.78;;;1.60;;
7497;SDS011;3790;48.806;9.140;2023-06-22T18:58:26;4.53;;;1.90;;
7497;SDS011;3790;48.806;9.140;2023-06-22T19:03:30;3.90;;;1.65;;
7497;SDS011;3790;48.806;9.140;2023-06-22T19:14:22;3.28;;;1.75;;
7497;SDS011;3790;48.806;9.140;2023-06-22T19:19:22;5.07;;;1.65;;
7497;SDS011;3790;48.806;9.140;2023-06-22T19:24:30;4.07;;;1.50;;
7497;SDS011;3790;48.806;9.140;2023-06-22T19:29:31;3.85;;;1.88;;
7497;SDS011;3790;48.806;9.140;2023-06-22T19:34:34;13.68;;;2.47;;
7497;SDS011;3790;48.806;9.140;2023-06-22T19:39:36;13.00;;;3.80;;
7497;SDS011;3790;48.806;9.140;2023-06-22T19:44:37;11.05;;;4.32;;
7497;SDS011;3790;48.806;9.140;2023-06-22T19:49:37;4.57;;;2.35;;
7497;SDS011;3790;48.806;9.140;2023-06-22T19:54:38;5.55;;;2.10;;
7497;SDS011;3790;48.806;9.140;2023-06-22T19:59:40;7.13;;;2.08;;
7497;SDS011;3790;48.806;9.140;2023-06-22T20:04:40;9.07;;;2.42;;
7497;SDS011;3790;48.806;9.140;2023-06-22T20:09:42;4.75;;;2.10;;
7497;SDS011;3790;48.806;9.140;2023-06-22T20:14:43;4.32;;;2.20;;
7497;SDS011;3790;48.806;9.140;2023-06-22T20:19:44;5.25;;;2.42;;
7497;SDS011;3790;48.806;9.140;2023-06-22T20:24:45;4.72;;;2.40;;
7497;SDS011;3790;48.806;9.140;2023-06-22T20:29:46;7.30;;;2.63;;
7497;SDS011;3790;48.806;9.140;2023-06-22T20:34:47;5.68;;;2.88;;
7497;SDS011;3790;48.806;9.140;2023-06-22T20:39:48;6.20;;;2.65;;
7497;SDS011;3790;48.806;9.140;2023-06-22T20:44:48;6.90;;;2.55;;
7497;SDS011;3790;48.806;9.140;2023-06-22T20:49:49;6.05;;;2.67;;
7497;SDS011;3790;48.806;9.140;2023-06-22T20:54:50;9.38;;;2.42;;
7497;SDS011;3790;48.806;9.140;2023-06-22T20:59:52;4.70;;;2.13;;
7497;SDS011;3790;48.806;9.140;2023-06-22T21:04:53;2.95;;;1.48;;
7497;SDS011;3790;48.806;9.140;2023-06-22T21:09:54;1.95;;;1.02;;
7497;SDS011;3790;48.806;9.140;2023-06-22T21:14:55;1.38;;;0.70;;
7497;SDS011;3790;48.806;9.140;2023-06-22T21:19:56;1.27;;;0.52;;
7497;SDS011;3790;48.806;9.140;2023-06-22T21:30:06;0.95;;;0.50;;
7497;SDS011;3790;48.806;9.140;2023-06-22T21:35:09;0.95;;;0.38;;
7497;SDS011;3790;48.806;9.140;2023-06-22T21:40:10;1.40;;;0.40;;
7497;SDS011;3790;48.806;9.140;2023-06-22T21:45:11;1.05;;;0.50;;
7497;SDS011;3790;48.806;9.140;2023-06-22T21:50:12;1.13;;;0.40;;
7497;SDS011;3790;48.806;9.140;2023-06-22T21:55:12;0.73;;;0.50;;
7497;SDS011;3790;48.806;9.140;2023-06-22T22:00:13;0.30;;;0.28;;
7497;SDS011;3790;48.806;9.140;2023-06-22T22:05:15;2.00;;;0.60;;
7497;SDS011;3790;48.806;9.140;2023-06-22T22:10:15;1.30;;;0.70;;
7497;SDS011;3790;48.806;9.140;2023-06-22T22:15:16;0.47;;;0.38;;
7497;SDS011;3790;48.806;9.140;2023-06-22T22:20:17;1.27;;;0.55;;
7497;SDS011;3790;48.806;9.140;2023-06-22T22:25:18;2.55;;;0.60;;
7497;SDS011;3790;48.806;9.140;2023-06-22T22:30:21;1.80;;;0.80;;
7497;SDS011;3790;48.806;9.140;2023-06-22T22:35:21;1.80;;;0.75;;
7497;SDS011;3790;48.806;9.140;2023-06-22T22:40:22;1.02;;;0.70;;
7497;SDS011;3790;48.806;9.140;2023-06-22T22:45:22;1.52;;;0.88;;
7497;SDS011;3790;48.806;9.140;2023-06-22T22:50:23;2.00;;;0.85;;
7497;SDS011;3790;48.806;9.140;2023-06-22T22:55:25;1.10;;;0.60;;
7497;SDS011;3790;48.806;9.140;2023-06-22T23:00:25;1.83;;;0.70;;
7497;SDS011;3790;48.806;9.140;2023-06-22T23:05:26;2.05;;;0.82;;
7497;SDS011;3790;48.806;9.140;2023-06-22T23:10:26;1.13;;;0.50;;
7497;SDS011;3790;48.806;9.140;2023-06-22T23:15:27;1.52;;;0.90;;
7497;SDS011;3790;48.806;9.140;2023-06-22T23:20:28;1.45;;;0.73;;
7497;SDS011;3790;48.806;9.140;2023-06-22T23:25:29;1.45;;;0.70;;
7497;SDS011;3790;48.806;9.140;2023-06-22T23:30:30;1.52;;;0.90;;
7497;SDS011;3790;48.806;9.140;2023-06-22T23:35:31;1.20;;;0.77;;
7497;SDS011;3790;48.806;9.140;2023-06-22T23:40:31;3.65;;;1.00;;
7497;SDS011;3790;48.806;9.140;2023-06-22T23:45:32;1.75;;;1.00;;
7497;SDS011;3790;48.806;9.140;2023-06-22T23:50:32;1.80;;;1.00;;
7497;SDS011;3790;48.806;9.140;2023-06-22T23:55:33;2.05;;;1.02;;
